sensor_id;sensor_type;location;lat;lon;timestamp;temperature;humidity
16289;DHT22;26089;43.538;5.250;2023-05-29T00:00:03;18.00;99.90
16289;DHT22;26089;43.538;5.250;2023-05-29T00:02:32;18.10;99.90
16289;DHT22;26089;43.538;5.250;2023-05-29T00:04:59;18.00;99.90
16289;DHT22;26089;43.538;5.250;2023-05-29T00:07:30;18.00;99.90
16289;DHT22;26089;43.538;5.250;2023-05-29T00:09:58;17.90;99.90
16289;DHT22;26089;43.538;5.250;2023-05-29T00:12:25;17.90;99.90
16289;DHT22;26089;43.538;5.250;2023-05-29T00:14:52;17.90;99.90
16289;DHT22;26089;43.538;5.250;2023-05-29T00:17:19;17.80;99.90
16289;DHT22;26089;43.538;5.250;2023-05-29T00:19:47;17.80;99.90
16289;DHT22;26089;43.538;5.250;2023-05-29T00:22:14;17.90;99.90
16289;DHT22;26089;43.538;5.250;2023-05-29T00:24:42;17.80;99.90
16289;DHT22;26089;43.538;5.250;2023-05-29T00:27:09;17.70;99.90
16289;DHT22;26089;43.538;5.250;2023-05-29T00:29:36;17.80;99.90
16289;DHT22;26089;43.538;5.250;2023-05-29T00:32:04;17.80;99.90
16289;DHT22;26089;43.538;5.250;2023-05-29T00:34:31;17.80;99.90
16289;DHT22;26089;43.538;5.250;2023-05-29T00:36:58;17.80;99.90
16289;DHT22;26089;43.538;5.250;2023-05-29T00:39:25;17.70;99.90
16289;DHT22;26089;43.538;5.250;2023-05-29T00:41:54;17.60;99.90
16289;DHT22;26089;43.538;5.250;2023-05-29T00:44:21;17.70;99.90
16289;DHT22;26089;43.538;5.250;2023-05-29T00:46:50;17.80;99.90
16289;DHT22;26089;43.538;5.250;2023-05-29T00:49:19;17.70;99.90
16289;DHT22;26089;43.538;5.250;2023-05-29T00:51:47;17.60;99.90
16289;DHT22;26089;43.538;5.250;2023-05-29T00:54:20;17.70;99.90
16289;DHT22;26089;43.538;5.250;2023-05-29T00:56:48;17.60;99.90
16289;DHT22;26089;43.538;5.250;2023-05-29T00:59:16;17.60;99.90
16289;DHT22;26089;43.538;5.250;2023-05-29T01:01:44;17.60;99.90
16289;DHT22;26089;43.538;5.250;2023-05-29T01:04:12;17.60;99.90
16289;DHT22;26089;43.538;5.250;2023-05-29T01:06:40;17.60;99.90
16289;DHT22;26089;43.538;5.250;2023-05-29T01:09:07;17.60;99.90
16289;DHT22;26089;43.538;5.250;2023-05-29T01:11:41;17.60;99.90
16289;DHT22;26089;43.538;5.250;2023-05-29T01:14:20;17.50;99.90
16289;DHT22;26089;43.538;5.250;2023-05-29T01:16:54;17.50;99.90
16289;DHT22;26089;43.538;5.250;2023-05-29T01:19:31;17.50;99.90
16289;DHT22;26089;43.538;5.250;2023-05-29T01:22:12;17.40;99.90
16289;DHT22;26089;43.538;5.250;2023-05-29T01:24:49;17.40;99.90
16289;DHT22;26089;43.538;5.250;2023-05-29T01:27:21;17.40;99.90
16289;DHT22;26089;43.538;5.250;2023-05-29T01:29:51;17.40;99.90
16289;DHT22;26089;43.538;5.250;2023-05-29T01:32:18;17.40;99.90
16289;DHT22;26089;43.538;5.250;2023-05-29T01:34:47;17.40;99.90
16289;DHT22;26089;43.538;5.250;2023-05-29T01:37:13;17.40;99.90
16289;DHT22;26089;43.538;5.250;2023-05-29T01:39:40;17.40;99.90
16289;DHT22;26089;43.538;5.250;2023-05-29T01:42:08;17.40;99.90
16289;DHT22;26089;43.538;5.250;2023-05-29T01:44:38;17.40;99.90
16289;DHT22;26089;43.538;5.250;2023-05-29T01:47:05;17.40;99.90
16289;DHT22;26089;43.538;5.250;2023-05-29T01:49:32;17.40;99.90
16289;DHT22;26089;43.538;5.250;2023-05-29T01:51:59;17.30;99.90
16289;DHT22;26089;43.538;5.250;2023-05-29T01:54:26;17.30;99.90
16289;DHT22;26089;43.538;5.250;2023-05-29T01:56:53;17.20;99.90
16289;DHT22;26089;43.538;5.250;2023-05-29T01:59:21;17.20;99.90
16289;DHT22;26089;43.538;5.250;2023-05-29T02:01:50;17.20;99.90
16289;DHT22;26089;43.538;5.250;2023-05-29T02:04:17;17.20;99.90
16289;DHT22;26089;43.538;5.250;2023-05-29T02:06:44;17.10;99.90
16289;DHT22;26089;43.538;5.250;2023-05-29T02:09:11;17.10;99.90
16289;DHT22;26089;43.538;5.250;2023-05-29T02:11:39;17.10;99.90
16289;DHT22;26089;43.538;5.250;2023-05-29T02:14:10;17.00;99.90
16289;DHT22;26089;43.538;5.250;2023-05-29T02:16:37;17.00;99.90
16289;DHT22;26089;43.538;5.250;2023-05-29T02:19:07;17.00;99.90
16289;DHT22;26089;43.538;5.250;2023-05-29T02:21:38;17.00;99.90
16289;DHT22;26089;43.538;5.250;2023-05-29T02:24:05;17.00;99.90
16289;DHT22;26089;43.538;5.250;2023-05-29T02:26:33;16.90;99.90
16289;DHT22;26089;43.538;5.250;2023-05-29T02:29:02;16.90;99.90
16289;DHT22;26089;43.538;5.250;2023-05-29T02:31:31;16.90;99.90
16289;DHT22;26089;43.538;5.250;2023-05-29T02:33:58;17.00;99.90
16289;DHT22;26089;43.538;5.250;2023-05-29T02:36:26;17.00;99.90
16289;DHT22;26089;43.538;5.250;2023-05-29T02:38:53;17.00;99.90
16289;DHT22;26089;43.538;5.250;2023-05-29T02:41:20;16.90;99.90
16289;DHT22;26089;43.538;5.250;2023-05-29T02:43:47;16.90;99.90
16289;DHT22;26089;43.538;5.250;2023-05-29T02:46:14;16.90;99.90
16289;DHT22;26089;43.538;5.250;2023-05-29T02:48:41;16.80;99.90
16289;DHT22;26089;43.538;5.250;2023-05-29T02:51:08;16.90;99.90
16289;DHT22;26089;43.538;5.250;2023-05-29T02:53:36;16.80;99.90
16289;DHT22;26089;43.538;5.250;2023-05-29T02:56:04;16.80;99.90
16289;DHT22;26089;43.538;5.250;2023-05-29T02:58:31;16.90;99.90
16289;DHT22;26089;43.538;5.250;2023-05-29T03:00:58;16.80;99.90
16289;DHT22;26089;43.538;5.250;2023-05-29T03:03:25;16.70;99.90
16289;DHT22;26089;43.538;5.250;2023-05-29T03:05:52;16.80;99.90
16289;DHT22;26089;43.538;5.250;2023-05-29T03:08:19;16.70;99.90
16289;DHT22;26089;43.538;5.250;2023-05-29T03:10:48;16.70;99.90
16289;DHT22;26089;43.538;5.250;2023-05-29T03:13:15;16.70;99.90
16289;DHT22;26089;43.538;5.250;2023-05-29T03:15:42;16.70;99.90
16289;DHT22;26089;43.538;5.250;2023-05-29T03:18:09;16.70;99.90
16289;DHT22;26089;43.538;5.250;2023-05-29T03:20:35;16.70;99.90
16289;DHT22;26089;43.538;5.250;2023-05-29T03:23:03;16.70;99.90
16289;DHT22;26089;43.538;5.250;2023-05-29T03:25:30;16.70;99.90
16289;DHT22;26089;43.538;5.250;2023-05-29T03:27:58;16.70;99.90
16289;DHT22;26089;43.538;5.250;2023-05-29T03:30:25;16.80;99.90
16289;DHT22;26089;43.538;5.250;2023-05-29T03:32:52;16.70;99.90
16289;DHT22;26089;43.538;5.250;2023-05-29T03:35:19;16.70;99.90
16289;DHT22;26089;43.538;5.250;2023-05-29T03:37:46;16.60;99.90
16289;DHT22;26089;43.538;5.250;2023-05-29T03:40:13;16.60;99.90
16289;DHT22;26089;43.538;5.250;2023-05-29T03:42:40;16.60;99.90
16289;DHT22;26089;43.538;5.250;2023-05-29T03:45:09;16.60;99.90
16289;DHT22;26089;43.538;5.250;2023-05-29T03:47:36;16.60;99.90
16289;DHT22;26089;43.538;5.250;2023-05-29T03:50:04;16.50;99.90
16289;DHT22;26089;43.538;5.250;2023-05-29T03:52:31;16.60;99.90
16289;DHT22;26089;43.538;5.250;2023-05-29T03:54:58;16.60;99.90
16289;DHT22;26089;43.538;5.250;2023-05-29T03:57:25;16.60;99.90
16289;DHT22;26089;43.538;5.250;2023-05-29T03:59:53;16.60;99.90
16289;DHT22;26089;43.538;5.250;2023-05-29T04:02:21;16.60;99.90
16289;DHT22;26089;43.538;5.250;2023-05-29T04:04:48;16.50;99.90
16289;DHT22;26089;43.538;5.250;2023-05-29T04:07:16;16.50;99.90
16289;DHT22;26089;43.538;5.250;2023-05-29T04:09:43;16.60;99.90
16289;DHT22;26089;43.538;5.250;2023-05-29T04:12:10;16.50;99.90
16289;DHT22;26089;43.538;5.250;2023-05-29T04:14:39;16.60;99.90
16289;DHT22;26089;43.538;5.250;2023-05-29T04:17:06;16.50;99.90
16289;DHT22;26089;43.538;5.250;2023-05-29T04:19:34;16.50;99.90
16289;DHT22;26089;43.538;5.250;2023-05-29T04:22:01;16.50;99.90
16289;DHT22;26089;43.538;5.250;2023-05-29T04:24:28;16.40;99.90
16289;DHT22;26089;43.538;5.250;2023-05-29T04:26:57;16.40;99.90
16289;DHT22;26089;43.538;5.250;2023-05-29T04:29:26;16.50;99.90
16289;DHT22;26089;43.538;5.250;2023-05-29T04:31:53;16.50;99.90
16289;DHT22;26089;43.538;5.250;2023-05-29T04:34:20;16.50;99.90
16289;DHT22;26089;43.538;5.250;2023-05-29T04:36:49;16.50;99.90
16289;DHT22;26089;43.538;5.250;2023-05-29T04:39:16;16.50;99.90
16289;DHT22;26089;43.538;5.250;2023-05-29T04:41:42;16.50;99.90
16289;DHT22;26089;43.538;5.250;2023-05-29T04:44:09;16.50;99.90
16289;DHT22;26089;43.538;5.250;2023-05-29T04:46:37;16.50;99.90
16289;DHT22;26089;43.538;5.250;2023-05-29T04:49:04;16.60;99.90
16289;DHT22;26089;43.538;5.250;2023-05-29T04:51:31;16.60;99.90
16289;DHT22;26089;43.538;5.250;2023-05-29T04:53:59;16.60;99.90
16289;DHT22;26089;43.538;5.250;2023-05-29T04:56:26;16.60;99.90
16289;DHT22;26089;43.538;5.250;2023-05-29T04:58:53;16.60;99.90
16289;DHT22;26089;43.538;5.250;2023-05-29T05:01:20;16.60;99.90
16289;DHT22;26089;43.538;5.250;2023-05-29T05:03:49;16.60;99.90
16289;DHT22;26089;43.538;5.250;2023-05-29T05:06:16;16.70;99.90
16289;DHT22;26089;43.538;5.250;2023-05-29T05:08:44;16.70;99.90
16289;DHT22;26089;43.538;5.250;2023-05-29T05:11:12;16.70;99.90
16289;DHT22;26089;43.538;5.250;2023-05-29T05:13:39;16.70;99.90
16289;DHT22;26089;43.538;5.250;2023-05-29T05:16:06;16.80;99.90
16289;DHT22;26089;43.538;5.250;2023-05-29T05:18:33;16.80;99.90
16289;DHT22;26089;43.538;5.250;2023-05-29T05:21:00;16.80;99.90
16289;DHT22;26089;43.538;5.250;2023-05-29T05:23:28;16.90;99.90
16289;DHT22;26089;43.538;5.250;2023-05-29T05:25:55;16.90;99.90
16289;DHT22;26089;43.538;5.250;2023-05-29T05:28:23;17.00;99.90
16289;DHT22;26089;43.538;5.250;2023-05-29T05:30:51;17.20;99.90
16289;DHT22;26089;43.538;5.250;2023-05-29T05:33:18;17.30;99.90
16289;DHT22;26089;43.538;5.250;2023-05-29T05:35:45;17.40;99.90
16289;DHT22;26089;43.538;5.250;2023-05-29T05:38:12;17.50;99.90
16289;DHT22;26089;43.538;5.250;2023-05-29T05:40:39;17.60;99.90
16289;DHT22;26089;43.538;5.250;2023-05-29T05:43:06;17.70;99.90
16289;DHT22;26089;43.538;5.250;2023-05-29T05:45:34;17.80;99.90
16289;DHT22;26089;43.538;5.250;2023-05-29T05:48:01;17.80;99.90
16289;DHT22;26089;43.538;5.250;2023-05-29T05:50:29;17.80;99.90
16289;DHT22;26089;43.538;5.250;2023-05-29T05:52:56;17.90;99.90
16289;DHT22;26089;43.538;5.250;2023-05-29T05:55:23;17.90;99.90
16289;DHT22;26089;43.538;5.250;2023-05-29T05:57:52;17.90;99.90
16289;DHT22;26089;43.538;5.250;2023-05-29T06:00:19;18.00;99.90
16289;DHT22;26089;43.538;5.250;2023-05-29T06:02:47;18.00;99.90
16289;DHT22;26089;43.538;5.250;2023-05-29T06:05:14;18.10;99.90
16289;DHT22;26089;43.538;5.250;2023-05-29T06:07:42;18.20;99.90
16289;DHT22;26089;43.538;5.250;2023-05-29T06:10:09;18.20;99.90
16289;DHT22;26089;43.538;5.250;2023-05-29T06:12:36;18.30;99.90
16289;DHT22;26089;43.538;5.250;2023-05-29T06:15:03;18.50;99.90
16289;DHT22;26089;43.538;5.250;2023-05-29T06:17:31;18.50;99.90
16289;DHT22;26089;43.538;5.250;2023-05-29T06:19:59;18.60;99.90
16289;DHT22;26089;43.538;5.250;2023-05-29T06:22:26;18.70;99.90
16289;DHT22;26089;43.538;5.250;2023-05-29T06:24:53;18.70;99.90
16289;DHT22;26089;43.538;5.250;2023-05-29T06:27:20;18.80;99.90
16289;DHT22;26089;43.538;5.250;2023-05-29T06:29:51;18.80;99.90
16289;DHT22;26089;43.538;5.250;2023-05-29T06:32:18;19.00;99.90
16289;DHT22;26089;43.538;5.250;2023-05-29T06:34:45;19.30;99.90
16289;DHT22;26089;43.538;5.250;2023-05-29T06:37:14;19.50;99.90
16289;DHT22;26089;43.538;5.250;2023-05-29T06:39:44;19.60;99.90
16289;DHT22;26089;43.538;5.250;2023-05-29T06:42:11;19.70;99.90
16289;DHT22;26089;43.538;5.250;2023-05-29T06:44:38;19.80;99.90
16289;DHT22;26089;43.538;5.250;2023-05-29T06:47:05;20.00;99.90
16289;DHT22;26089;43.538;5.250;2023-05-29T06:49:33;20.20;99.90
16289;DHT22;26089;43.538;5.250;2023-05-29T06:51:59;20.60;99.90
16289;DHT22;26089;43.538;5.250;2023-05-29T06:54:28;21.10;99.90
16289;DHT22;26089;43.538;5.250;2023-05-29T06:56:55;22.00;99.90
16289;DHT22;26089;43.538;5.250;2023-05-29T06:59:22;22.80;99.90
16289;DHT22;26089;43.538;5.250;2023-05-29T07:01:49;23.50;99.90
16289;DHT22;26089;43.538;5.250;2023-05-29T07:04:16;24.00;99.90
16289;DHT22;26089;43.538;5.250;2023-05-29T07:06:43;24.70;99.90
16289;DHT22;26089;43.538;5.250;2023-05-29T07:09:10;25.10;99.90
16289;DHT22;26089;43.538;5.250;2023-05-29T07:11:38;25.30;99.90
16289;DHT22;26089;43.538;5.250;2023-05-29T07:14:05;25.70;99.90
16289;DHT22;26089;43.538;5.250;2023-05-29T07:16:32;26.00;99.90
16289;DHT22;26089;43.538;5.250;2023-05-29T07:18:59;26.40;99.90
16289;DHT22;26089;43.538;5.250;2023-05-29T07:21:26;26.70;99.90
16289;DHT22;26089;43.538;5.250;2023-05-29T07:23:53;27.00;99.90
16289;DHT22;26089;43.538;5.250;2023-05-29T07:26:20;27.00;99.90
16289;DHT22;26089;43.538;5.250;2023-05-29T07:28:49;27.00;99.90
16289;DHT22;26089;43.538;5.250;2023-05-29T07:31:16;27.10;99.90
16289;DHT22;26089;43.538;5.250;2023-05-29T07:33:43;27.40;99.90
16289;DHT22;26089;43.538;5.250;2023-05-29T07:36:11;27.50;99.90
16289;DHT22;26089;43.538;5.250;2023-05-29T07:38:38;27.70;99.90
16289;DHT22;26089;43.538;5.250;2023-05-29T07:41:05;27.60;99.90
16289;DHT22;26089;43.538;5.250;2023-05-29T07:43:32;27.70;99.90
16289;DHT22;26089;43.538;5.250;2023-05-29T07:46:00;27.90;99.90
16289;DHT22;26089;43.538;5.250;2023-05-29T07:48:27;27.90;99.90
16289;DHT22;26089;43.538;5.250;2023-05-29T07:50:54;28.10;99.90
16289;DHT22;26089;43.538;5.250;2023-05-29T07:53:21;28.20;99.90
16289;DHT22;26089;43.538;5.250;2023-05-29T07:55:48;28.20;99.90
16289;DHT22;26089;43.538;5.250;2023-05-29T07:58:15;28.00;99.90
16289;DHT22;26089;43.538;5.250;2023-05-29T08:00:44;27.90;99.90
16289;DHT22;26089;43.538;5.250;2023-05-29T08:03:12;27.90;99.90
16289;DHT22;26089;43.538;5.250;2023-05-29T08:05:39;27.90;99.90
16289;DHT22;26089;43.538;5.250;2023-05-29T08:08:06;28.00;99.90
16289;DHT22;26089;43.538;5.250;2023-05-29T08:10:33;27.80;99.90
16289;DHT22;26089;43.538;5.250;2023-05-29T08:13:00;28.20;99.90
16289;DHT22;26089;43.538;5.250;2023-05-29T08:15:27;28.50;99.90
16289;DHT22;26089;43.538;5.250;2023-05-29T08:17:54;28.60;99.90
16289;DHT22;26089;43.538;5.250;2023-05-29T08:20:22;28.70;99.90
16289;DHT22;26089;43.538;5.250;2023-05-29T08:22:49;28.80;99.90
16289;DHT22;26089;43.538;5.250;2023-05-29T08:25:17;28.80;99.90
16289;DHT22;26089;43.538;5.250;2023-05-29T08:27:44;28.90;99.90
16289;DHT22;26089;43.538;5.250;2023-05-29T08:30:12;29.10;99.90
16289;DHT22;26089;43.538;5.250;2023-05-29T08:32:39;29.30;99.90
16289;DHT22;26089;43.538;5.250;2023-05-29T08:35:06;29.20;99.90
16289;DHT22;26089;43.538;5.250;2023-05-29T08:37:35;29.40;99.90
16289;DHT22;26089;43.538;5.250;2023-05-29T08:40:02;29.70;99.90
16289;DHT22;26089;43.538;5.250;2023-05-29T08:42:36;29.80;99.90
16289;DHT22;26089;43.538;5.250;2023-05-29T08:45:07;29.70;99.90
16289;DHT22;26089;43.538;5.250;2023-05-29T08:47:40;29.50;99.90
16289;DHT22;26089;43.538;5.250;2023-05-29T08:50:07;29.30;99.90
16289;DHT22;26089;43.538;5.250;2023-05-29T08:52:36;29.20;99.90
16289;DHT22;26089;43.538;5.250;2023-05-29T08:55:05;29.20;99.90
16289;DHT22;26089;43.538;5.250;2023-05-29T08:57:32;29.40;99.90
16289;DHT22;26089;43.538;5.250;2023-05-29T09:00:01;29.60;99.90
16289;DHT22;26089;43.538;5.250;2023-05-29T09:02:33;29.60;99.90
16289;DHT22;26089;43.538;5.250;2023-05-29T09:05:02;29.50;99.90
16289;DHT22;26089;43.538;5.250;2023-05-29T09:07:29;30.10;99.90
16289;DHT22;26089;43.538;5.250;2023-05-29T09:09:58;30.60;99.90
16289;DHT22;26089;43.538;5.250;2023-05-29T09:12:26;30.60;99.90
16289;DHT22;26089;43.538;5.250;2023-05-29T09:14:53;30.60;99.90
16289;DHT22;26089;43.538;5.250;2023-05-29T09:17:20;30.60;99.90
16289;DHT22;26089;43.538;5.250;2023-05-29T09:19:48;30.80;99.90
16289;DHT22;26089;43.538;5.250;2023-05-29T09:22:15;30.60;99.90
16289;DHT22;26089;43.538;5.250;2023-05-29T09:24:43;30.70;99.90
16289;DHT22;26089;43.538;5.250;2023-05-29T09:27:14;30.80;99.90
16289;DHT22;26089;43.538;5.250;2023-05-29T09:29:42;30.40;99.90
16289;DHT22;26089;43.538;5.250;2023-05-29T09:32:10;30.20;99.90
16289;DHT22;26089;43.538;5.250;2023-05-29T09:34:38;30.20;99.90
16289;DHT22;26089;43.538;5.250;2023-05-29T09:37:06;30.00;99.90
16289;DHT22;26089;43.538;5.250;2023-05-29T09:39:44;30.10;99.90
16289;DHT22;26089;43.538;5.250;2023-05-29T09:42:10;29.70;99.90
16289;DHT22;26089;43.538;5.250;2023-05-29T09:44:40;29.60;99.90
16289;DHT22;26089;43.538;5.250;2023-05-29T09:47:07;29.70;99.90
16289;DHT22;26089;43.538;5.250;2023-05-29T09:49:34;29.60;99.90
16289;DHT22;26089;43.538;5.250;2023-05-29T09:52:04;30.10;99.90
16289;DHT22;26089;43.538;5.250;2023-05-29T09:54:35;30.10;99.90
16289;DHT22;26089;43.538;5.250;2023-05-29T09:57:03;30.10;99.90
16289;DHT22;26089;43.538;5.250;2023-05-29T09:59:33;29.70;99.90
16289;DHT22;26089;43.538;5.250;2023-05-29T10:02:03;29.80;99.90
16289;DHT22;26089;43.538;5.250;2023-05-29T10:04:33;29.10;99.90
16289;DHT22;26089;43.538;5.250;2023-05-29T10:07:04;29.10;99.90
16289;DHT22;26089;43.538;5.250;2023-05-29T10:09:33;29.30;99.90
16289;DHT22;26089;43.538;5.250;2023-05-29T10:12:03;29.30;99.90
16289;DHT22;26089;43.538;5.250;2023-05-29T10:14:33;28.70;99.90
16289;DHT22;26089;43.538;5.250;2023-05-29T10:17:05;28.70;99.90
16289;DHT22;26089;43.538;5.250;2023-05-29T10:19:36;28.90;99.90
16289;DHT22;26089;43.538;5.250;2023-05-29T10:22:04;29.20;99.90
16289;DHT22;26089;43.538;5.250;2023-05-29T10:24:33;29.60;99.90
16289;DHT22;26089;43.538;5.250;2023-05-29T10:27:01;29.70;99.90
16289;DHT22;26089;43.538;5.250;2023-05-29T10:29:34;29.80;99.90
16289;DHT22;26089;43.538;5.250;2023-05-29T10:32:12;29.60;99.90
16289;DHT22;26089;43.538;5.250;2023-05-29T10:34:47;29.80;99.90
16289;DHT22;26089;43.538;5.250;2023-05-29T10:37:23;29.90;99.90
16289;DHT22;26089;43.538;5.250;2023-05-29T10:39:51;30.30;99.90
16289;DHT22;26089;43.538;5.250;2023-05-29T10:42:40;30.60;99.90
16289;DHT22;26089;43.538;5.250;2023-05-29T10:45:08;30.40;99.90
16289;DHT22;26089;43.538;5.250;2023-05-29T10:47:38;29.60;99.90
16289;DHT22;26089;43.538;5.250;2023-05-29T10:50:06;28.50;99.90
16289;DHT22;26089;43.538;5.250;2023-05-29T10:52:33;28.00;99.90
16289;DHT22;26089;43.538;5.250;2023-05-29T10:55:01;27.50;99.90
16289;DHT22;26089;43.538;5.250;2023-05-29T10:57:30;27.00;99.90
16289;DHT22;26089;43.538;5.250;2023-05-29T11:00:06;26.80;99.90
16289;DHT22;26089;43.538;5.250;2023-05-29T11:02:40;27.10;99.90
16289;DHT22;26089;43.538;5.250;2023-05-29T11:05:21;28.20;99.90
16289;DHT22;26089;43.538;5.250;2023-05-29T11:07:55;29.00;99.90
16289;DHT22;26089;43.538;5.250;2023-05-29T11:10:44;30.00;99.90
16289;DHT22;26089;43.538;5.250;2023-05-29T11:13:23;31.10;99.90
16289;DHT22;26089;43.538;5.250;2023-05-29T11:16:13;30.60;99.90
16289;DHT22;26089;43.538;5.250;2023-05-29T11:18:45;30.90;99.90
16289;DHT22;26089;43.538;5.250;2023-05-29T11:24:00;31.30;99.90
16289;DHT22;26089;43.538;5.250;2023-05-29T11:26:30;30.90;99.90
16289;DHT22;26089;43.538;5.250;2023-05-29T11:28:59;30.80;99.90
16289;DHT22;26089;43.538;5.250;2023-05-29T11:31:27;30.70;99.90
16289;DHT22;26089;43.538;5.250;2023-05-29T11:33:59;30.30;99.90
16289;DHT22;26089;43.538;5.250;2023-05-29T11:36:28;30.30;99.90
16289;DHT22;26089;43.538;5.250;2023-05-29T11:38:56;29.70;99.90
16289;DHT22;26089;43.538;5.250;2023-05-29T11:41:23;28.90;99.90
16289;DHT22;26089;43.538;5.250;2023-05-29T11:43:58;28.10;99.90
16289;DHT22;26089;43.538;5.250;2023-05-29T11:46:25;27.40;99.90
16289;DHT22;26089;43.538;5.250;2023-05-29T11:48:53;26.90;99.90
16289;DHT22;26089;43.538;5.250;2023-05-29T11:51:22;26.70;99.90
16289;DHT22;26089;43.538;5.250;2023-05-29T11:53:49;26.40;99.90
16289;DHT22;26089;43.538;5.250;2023-05-29T11:56:18;26.00;99.90
16289;DHT22;26089;43.538;5.250;2023-05-29T11:58:46;25.80;99.90
16289;DHT22;26089;43.538;5.250;2023-05-29T12:01:16;25.80;99.90
16289;DHT22;26089;43.538;5.250;2023-05-29T12:03:44;25.90;99.90
16289;DHT22;26089;43.538;5.250;2023-05-29T12:06:12;25.80;99.90
16289;DHT22;26089;43.538;5.250;2023-05-29T12:08:40;25.80;99.90
16289;DHT22;26089;43.538;5.250;2023-05-29T12:11:08;25.90;99.90
16289;DHT22;26089;43.538;5.250;2023-05-29T12:13:35;25.90;99.90
16289;DHT22;26089;43.538;5.250;2023-05-29T12:16:04;25.80;99.90
16289;DHT22;26089;43.538;5.250;2023-05-29T12:18:32;25.90;99.90
16289;DHT22;26089;43.538;5.250;2023-05-29T12:21:00;25.90;99.90
16289;DHT22;26089;43.538;5.250;2023-05-29T12:23:28;25.80;99.90
16289;DHT22;26089;43.538;5.250;2023-05-29T12:25:57;25.90;99.90
16289;DHT22;26089;43.538;5.250;2023-05-29T12:28:25;25.60;99.90
16289;DHT22;26089;43.538;5.250;2023-05-29T12:30:58;25.70;99.90
16289;DHT22;26089;43.538;5.250;2023-05-29T12:33:29;25.60;99.90
16289;DHT22;26089;43.538;5.250;2023-05-29T12:36:04;25.70;99.90
16289;DHT22;26089;43.538;5.250;2023-05-29T12:38:32;25.80;99.90
16289;DHT22;26089;43.538;5.250;2023-05-29T12:41:00;26.00;99.90
16289;DHT22;26089;43.538;5.250;2023-05-29T12:43:28;26.40;99.90
16289;DHT22;26089;43.538;5.250;2023-05-29T12:45:55;26.30;99.90
16289;DHT22;26089;43.538;5.250;2023-05-29T12:48:26;26.10;99.90
16289;DHT22;26089;43.538;5.250;2023-05-29T12:50:53;26.10;99.90
16289;DHT22;26089;43.538;5.250;2023-05-29T12:53:20;25.90;99.90
16289;DHT22;26089;43.538;5.250;2023-05-29T12:55:47;25.80;99.90
16289;DHT22;26089;43.538;5.250;2023-05-29T12:58:16;25.60;99.90
16289;DHT22;26089;43.538;5.250;2023-05-29T13:00:44;25.50;99.90
16289;DHT22;26089;43.538;5.250;2023-05-29T13:03:12;25.30;99.90
16289;DHT22;26089;43.538;5.250;2023-05-29T13:05:40;25.20;99.90
16289;DHT22;26089;43.538;5.250;2023-05-29T13:08:07;25.10;99.90
16289;DHT22;26089;43.538;5.250;2023-05-29T13:10:34;25.00;99.90
16289;DHT22;26089;43.538;5.250;2023-05-29T13:13:01;24.90;99.90
16289;DHT22;26089;43.538;5.250;2023-05-29T13:15:30;24.90;99.90
16289;DHT22;26089;43.538;5.250;2023-05-29T13:17:58;24.70;99.90
16289;DHT22;26089;43.538;5.250;2023-05-29T13:20:25;24.50;99.90
16289;DHT22;26089;43.538;5.250;2023-05-29T13:22:52;24.50;99.90
16289;DHT22;26089;43.538;5.250;2023-05-29T13:25:20;24.40;99.90
16289;DHT22;26089;43.538;5.250;2023-05-29T13:27:49;24.30;99.90
16289;DHT22;26089;43.538;5.250;2023-05-29T13:30:16;24.30;99.90
16289;DHT22;26089;43.538;5.250;2023-05-29T13:32:45;24.30;99.90
16289;DHT22;26089;43.538;5.250;2023-05-29T13:35:12;24.30;99.90
16289;DHT22;26089;43.538;5.250;2023-05-29T13:37:39;24.20;99.90
16289;DHT22;26089;43.538;5.250;2023-05-29T13:40:07;24.10;99.90
16289;DHT22;26089;43.538;5.250;2023-05-29T13:42:35;23.90;99.90
16289;DHT22;26089;43.538;5.250;2023-05-29T13:45:05;23.60;99.90
16289;DHT22;26089;43.538;5.250;2023-05-29T13:47:33;23.20;99.90
16289;DHT22;26089;43.538;5.250;2023-05-29T13:50:01;22.90;99.90
16289;DHT22;26089;43.538;5.250;2023-05-29T13:52:29;22.60;99.90
16289;DHT22;26089;43.538;5.250;2023-05-29T13:54:56;22.20;99.90
16289;DHT22;26089;43.538;5.250;2023-05-29T13:57:25;21.80;99.90
16289;DHT22;26089;43.538;5.250;2023-05-29T13:59:53;21.20;99.90
16289;DHT22;26089;43.538;5.250;2023-05-29T14:02:21;20.70;99.90
16289;DHT22;26089;43.538;5.250;2023-05-29T14:04:48;20.30;99.90
16289;DHT22;26089;43.538;5.250;2023-05-29T14:07:16;20.00;99.90
16289;DHT22;26089;43.538;5.250;2023-05-29T14:09:43;19.80;99.90
16289;DHT22;26089;43.538;5.250;2023-05-29T14:12:10;19.60;99.90
16289;DHT22;26089;43.538;5.250;2023-05-29T14:14:37;19.50;99.90
16289;DHT22;26089;43.538;5.250;2023-05-29T14:17:05;19.40;99.90
16289;DHT22;26089;43.538;5.250;2023-05-29T14:19:32;19.40;99.90
16289;DHT22;26089;43.538;5.250;2023-05-29T14:21:59;19.40;99.90
16289;DHT22;26089;43.538;5.250;2023-05-29T14:24:27;19.30;99.90
16289;DHT22;26089;43.538;5.250;2023-05-29T14:26:54;19.30;99.90
16289;DHT22;26089;43.538;5.250;2023-05-29T14:29:21;19.30;99.90
16289;DHT22;26089;43.538;5.250;2023-05-29T14:31:48;19.20;99.90
16289;DHT22;26089;43.538;5.250;2023-05-29T14:34:15;19.20;99.90
16289;DHT22;26089;43.538;5.250;2023-05-29T14:36:42;19.20;99.90
16289;DHT22;26089;43.538;5.250;2023-05-29T14:39:10;19.20;99.90
16289;DHT22;26089;43.538;5.250;2023-05-29T14:41:39;19.20;99.90
16289;DHT22;26089;43.538;5.250;2023-05-29T14:44:06;19.20;99.90
16289;DHT22;26089;43.538;5.250;2023-05-29T14:46:33;19.20;99.90
16289;DHT22;26089;43.538;5.250;2023-05-29T14:49:00;19.20;99.90
16289;DHT22;26089;43.538;5.250;2023-05-29T14:51:28;19.30;99.90
16289;DHT22;26089;43.538;5.250;2023-05-29T14:53:55;19.30;99.90
16289;DHT22;26089;43.538;5.250;2023-05-29T14:56:22;19.40;99.90
16289;DHT22;26089;43.538;5.250;2023-05-29T14:58:50;19.40;99.90
16289;DHT22;26089;43.538;5.250;2023-05-29T15:01:18;19.40;99.90
16289;DHT22;26089;43.538;5.250;2023-05-29T15:03:45;19.40;99.90
16289;DHT22;26089;43.538;5.250;2023-05-29T15:06:12;19.40;99.90
16289;DHT22;26089;43.538;5.250;2023-05-29T15:08:40;19.40;99.90
16289;DHT22;26089;43.538;5.250;2023-05-29T15:11:08;19.50;99.90
16289;DHT22;26089;43.538;5.250;2023-05-29T15:13:37;19.40;99.90
16289;DHT22;26089;43.538;5.250;2023-05-29T15:16:06;19.30;99.90
16289;DHT22;26089;43.538;5.250;2023-05-29T15:18:33;19.30;99.90
16289;DHT22;26089;43.538;5.250;2023-05-29T15:21:00;19.20;99.90
16289;DHT22;26089;43.538;5.250;2023-05-29T15:23:27;19.20;99.90
16289;DHT22;26089;43.538;5.250;2023-05-29T15:25:54;19.20;99.90
16289;DHT22;26089;43.538;5.250;2023-05-29T15:28:21;19.10;99.90
16289;DHT22;26089;43.538;5.250;2023-05-29T15:30:48;19.10;99.90
16289;DHT22;26089;43.538;5.250;2023-05-29T15:33:16;19.00;99.90
16289;DHT22;26089;43.538;5.250;2023-05-29T15:35:43;19.00;99.90
16289;DHT22;26089;43.538;5.250;2023-05-29T15:38:11;19.00;99.90